createdAt,value
2023-02-27T00:02:19.450Z,3.37
2023-02-27T00:04:47.964Z,2.80
2023-02-27T00:07:18.103Z,3.30
2023-02-27T00:09:46.615Z,2.80
2023-02-27T00:12:15.031Z,3.20
2023-02-27T00:14:43.410Z,3.70
2023-02-27T00:17:11.734Z,3.77
2023-02-27T00:19:40.273Z,3.40
2023-02-27T00:22:08.542Z,3.43
2023-02-27T00:24:38.013Z,3.40
2023-02-27T00:27:06.301Z,3.67
2023-02-27T00:29:34.644Z,3.70
2023-02-27T00:32:03.531Z,3.87
2023-02-27T00:34:32.534Z,3.93
2023-02-27T00:37:00.762Z,4.00
2023-02-27T00:39:29.252Z,3.60
2023-02-27T00:41:58.823Z,3.70
2023-02-27T00:44:27.183Z,3.73
2023-02-27T00:46:55.407Z,3.53
2023-02-27T00:49:25.514Z,3.97
2023-02-27T00:51:54.336Z,4.00
2023-02-27T00:54:22.779Z,3.43
2023-02-27T00:56:50.922Z,3.50
2023-02-27T00:59:21.876Z,4.07
2023-02-27T01:01:50.272Z,3.70
2023-02-27T01:04:18.700Z,3.57
2023-02-27T01:06:46.856Z,3.37
2023-02-27T01:09:15.271Z,3.43
2023-02-27T01:11:43.516Z,3.77
2023-02-27T01:14:11.816Z,3.63
2023-02-27T01:16:41.396Z,3.40
2023-02-27T01:19:09.810Z,3.63
2023-02-27T01:21:38.385Z,3.47
2023-02-27T01:24:07.147Z,3.33
2023-02-27T01:26:35.471Z,3.77
2023-02-27T01:29:06.431Z,3.33
2023-02-27T01:31:35.015Z,3.40
2023-02-27T01:34:04.701Z,3.73
2023-02-27T01:36:32.862Z,3.43
2023-02-27T01:39:01.040Z,3.40
2023-02-27T01:41:29.827Z,3.17
2023-02-27T01:44:00.708Z,3.70
2023-02-27T01:46:30.310Z,3.70
2023-02-27T01:49:03.534Z,3.93
2023-02-27T01:51:37.521Z,4.00
2023-02-27T01:54:10.170Z,3.73
2023-02-27T01:56:38.464Z,4.07
2023-02-27T01:59:10.254Z,3.90
2023-02-27T02:01:39.649Z,3.50
2023-02-27T02:04:13.707Z,3.90
2023-02-27T02:06:47.599Z,3.90
2023-02-27T02:09:18.600Z,3.67
2023-02-27T02:11:46.878Z,3.80
2023-02-27T02:14:15.160Z,3.93
2023-02-27T02:16:54.671Z,4.00
2023-02-27T02:20:01.876Z,4.43
2023-02-27T02:22:57.091Z,5.33
2023-02-27T02:26:05.368Z,6.53
2023-02-27T02:29:21.671Z,7.47
2023-02-27T02:32:14.504Z,7.50
2023-02-27T02:35:12.674Z,8.20
2023-02-27T02:38:23.506Z,8.10
2023-02-27T02:40:54.771Z,9.80
2023-02-27T02:43:29.216Z,10.73
2023-02-27T02:46:04.491Z,11.57
2023-02-27T02:48:40.479Z,9.80
2023-02-27T02:51:17.401Z,9.80
2023-02-27T02:53:54.482Z,9.67
2023-02-27T02:56:28.201Z,9.83
2023-02-27T02:59:00.577Z,10.20
2023-02-27T03:01:34.570Z,9.87
2023-02-27T03:04:08.410Z,11.70
2023-02-27T03:06:41.035Z,12.43
2023-02-27T03:09:18.313Z,13.20
2023-02-27T03:11:49.480Z,13.37
2023-02-27T03:14:25.402Z,13.00
2023-02-27T03:16:59.496Z,12.77
2023-02-27T03:19:32.072Z,10.50
2023-02-27T03:22:05.434Z,9.17
2023-02-27T03:24:39.978Z,9.63
2023-02-27T03:27:10.120Z,8.83
2023-02-27T03:29:44.924Z,8.20
2023-02-27T03:32:18.747Z,7.53
2023-02-27T03:34:47.903Z,7.73
2023-02-27T03:37:25.550Z,6.17
2023-02-27T03:40:02.286Z,5.97
2023-02-27T03:42:37.775Z,4.53
2023-02-27T03:45:12.663Z,4.60
2023-02-27T03:47:41.254Z,5.07
2023-02-27T03:50:10.960Z,5.47
2023-02-27T03:52:40.038Z,5.20
2023-02-27T03:55:14.731Z,5.43
2023-02-27T03:57:45.977Z,5.47
2023-02-27T04:00:16.835Z,5.50
2023-02-27T04:02:46.813Z,5.57
2023-02-27T04:05:15.221Z,6.30
2023-02-27T04:07:53.851Z,6.30
2023-02-27T04:10:42.078Z,7.97
2023-02-27T04:13:55.321Z,7.90
2023-02-27T04:16:47.596Z,6.87
2023-02-27T04:19:26.481Z,6.80
2023-02-27T04:22:06.964Z,7.60
2023-02-27T04:24:39.118Z,6.97
2023-02-27T04:27:16.822Z,7.43
2023-02-27T04:29:54.243Z,7.03
2023-02-27T04:32:32.036Z,6.90
2023-02-27T04:35:04.441Z,6.80
2023-02-27T04:37:38.455Z,6.43
2023-02-27T04:40:13.591Z,8.13
2023-02-27T04:42:49.060Z,6.63
2023-02-27T04:45:22.229Z,7.67
2023-02-27T04:47:54.831Z,8.50
2023-02-27T04:50:26.859Z,7.97
2023-02-27T04:53:01.175Z,7.50
2023-02-27T04:55:34.331Z,8.63
2023-02-27T04:58:09.314Z,8.00
2023-02-27T05:00:41.040Z,8.40
2023-02-27T05:03:13.900Z,7.97
2023-02-27T05:05:44.910Z,6.73
2023-02-27T05:08:23.356Z,7.10
2023-02-27T05:10:58.239Z,6.10
2023-02-27T05:13:31.277Z,6.60
2023-02-27T05:16:05.460Z,6.60
2023-02-27T05:18:34.205Z,6.30
2023-02-27T05:21:11.141Z,6.20
2023-02-27T05:23:46.978Z,6.73
2023-02-27T05:26:20.610Z,6.60
2023-02-27T05:28:56.503Z,7.37
2023-02-27T05:31:29.931Z,11.10
2023-02-27T05:34:05.039Z,11.40
2023-02-27T05:36:37.856Z,9.93
2023-02-27T05:39:10.023Z,9.80
2023-02-27T05:41:44.480Z,9.57
2023-02-27T05:44:18.453Z,9.53
2023-02-27T05:46:57.151Z,8.33
2023-02-27T05:49:28.528Z,7.17
2023-02-27T05:52:01.766Z,8.10
2023-02-27T05:54:38.772Z,7.70
2023-02-27T05:57:12.518Z,7.03
2023-02-27T05:59:48.968Z,7.67
2023-02-27T06:02:18.401Z,6.97
2023-02-27T06:04:47.237Z,6.50
2023-02-27T06:07:16.508Z,6.20
2023-02-27T06:09:46.507Z,5.60
2023-02-27T06:12:14.937Z,6.23
2023-02-27T06:14:44.604Z,6.20
2023-02-27T06:17:12.946Z,6.17
2023-02-27T06:19:41.344Z,6.20
2023-02-27T06:22:10.623Z,5.97
2023-02-27T06:24:39.000Z,7.07
2023-02-27T06:27:07.408Z,6.77
2023-02-27T06:29:35.893Z,6.53
2023-02-27T06:32:05.522Z,6.23
2023-02-27T06:34:34.036Z,6.57
2023-02-27T06:37:04.230Z,6.10
2023-02-27T06:39:32.915Z,5.90
2023-02-27T06:42:01.027Z,5.53
2023-02-27T06:44:29.597Z,5.37
2023-02-27T06:46:57.903Z,5.43
2023-02-27T06:49:27.543Z,6.30
2023-02-27T06:51:55.944Z,5.67
2023-02-27T06:54:24.196Z,5.40
2023-02-27T06:56:52.967Z,5.57
2023-02-27T06:59:21.216Z,5.57
2023-02-27T07:01:49.652Z,5.27
2023-02-27T07:04:18.296Z,5.23
2023-02-27T07:07:32.939Z,5.00
2023-02-27T07:09:37.115Z,5.03
2023-02-27T07:12:05.789Z,5.20
2023-02-27T07:14:33.991Z,5.10
2023-02-27T07:17:04.573Z,4.50
2023-02-27T07:19:35.891Z,4.53
2023-02-27T07:22:05.902Z,5.87
2023-02-27T07:24:34.058Z,6.20
2023-02-27T07:27:02.778Z,9.30
2023-02-27T07:29:31.054Z,7.57
2023-02-27T07:31:59.521Z,8.60
2023-02-27T07:34:28.097Z,8.70
2023-02-27T07:36:56.403Z,8.77
2023-02-27T07:39:25.873Z,7.90
2023-02-27T07:41:54.165Z,8.07
2023-02-27T07:44:22.435Z,7.87
2023-02-27T07:46:51.191Z,8.00
2023-02-27T07:49:19.412Z,8.17
2023-02-27T07:51:48.075Z,7.73
2023-02-27T07:54:16.530Z,7.70
2023-02-27T07:56:46.149Z,7.60
2023-02-27T07:59:14.368Z,7.13
2023-02-27T08:01:42.829Z,7.47
2023-02-27T08:04:11.165Z,7.27
2023-02-27T08:06:40.011Z,6.93
2023-02-27T08:09:08.434Z,6.33
2023-02-27T08:11:36.832Z,6.63
2023-02-27T08:14:07.026Z,6.47
2023-02-27T08:16:35.683Z,6.97
2023-02-27T08:19:04.606Z,6.23
2023-02-27T08:21:33.004Z,6.77
2023-02-27T08:24:01.197Z,6.30
2023-02-27T08:26:29.879Z,5.40
2023-02-27T08:28:58.536Z,6.10
2023-02-27T08:31:28.315Z,5.23
2023-02-27T08:34:04.452Z,8.80
2023-02-27T08:36:37.592Z,6.60
2023-02-27T08:39:06.248Z,8.57
2023-02-27T08:41:35.050Z,7.00
2023-02-27T08:44:03.645Z,5.07
2023-02-27T08:46:33.515Z,5.60
2023-02-27T08:49:01.890Z,6.07
2023-02-27T08:51:30.539Z,5.37
2023-02-27T08:53:59.702Z,4.53
2023-02-27T08:56:31.663Z,5.80
2023-02-27T08:59:01.125Z,5.87
2023-02-27T09:01:34.304Z,6.40
2023-02-27T09:04:05.203Z,5.30
2023-02-27T09:06:36.544Z,5.17
2023-02-27T09:09:06.582Z,5.10
2023-02-27T09:11:38.177Z,4.10
2023-02-27T09:14:07.579Z,4.20
2023-02-27T09:16:35.826Z,4.27
2023-02-27T09:19:05.797Z,4.00
2023-02-27T09:21:34.283Z,4.13
2023-02-27T09:24:13.719Z,3.60
2023-02-27T09:26:48.022Z,3.60
2023-02-27T09:29:16.634Z,4.20
2023-02-27T09:31:45.093Z,4.80
2023-02-27T09:34:15.058Z,5.40
2023-02-27T09:36:43.859Z,4.20
2023-02-27T09:39:12.462Z,3.23
2023-02-27T09:41:53.594Z,3.20
2023-02-27T09:44:46.215Z,3.00
2023-02-27T09:47:19.192Z,2.43
2023-02-27T09:50:01.283Z,2.60
2023-02-27T09:52:31.138Z,2.70
2023-02-27T09:55:00.508Z,3.23
2023-02-27T09:57:41.419Z,2.80
2023-02-27T10:00:29.078Z,2.67
2023-02-27T10:03:07.071Z,2.43
2023-02-27T10:05:43.943Z,2.80
2023-02-27T10:08:22.904Z,2.80
2023-02-27T10:11:00.361Z,3.47
2023-02-27T10:13:44.002Z,2.50
2023-02-27T10:16:15.216Z,2.30
2023-02-27T10:18:55.882Z,3.03
2023-02-27T10:21:31.272Z,2.10
2023-02-27T10:24:07.781Z,2.70
2023-02-27T10:26:40.468Z,2.60
2023-02-27T10:29:19.973Z,2.20
2023-02-27T10:31:55.487Z,2.13
2023-02-27T10:34:25.547Z,1.80
2023-02-27T10:36:55.369Z,2.03
2023-02-27T10:39:24.399Z,2.03
2023-02-27T10:41:53.656Z,2.10
2023-02-27T10:44:24.562Z,2.40
2023-02-27T10:46:52.883Z,2.20
2023-02-27T10:49:22.999Z,2.13
2023-02-27T10:52:08.906Z,2.00
2023-02-27T10:54:38.035Z,2.10
2023-02-27T10:57:20.319Z,2.67
2023-02-27T10:59:54.021Z,1.90
2023-02-27T11:02:24.593Z,2.33
2023-02-27T11:04:55.553Z,2.90
2023-02-27T11:07:34.658Z,2.53
2023-02-27T11:10:16.800Z,2.43
2023-02-27T11:12:59.178Z,2.50
2023-02-27T11:15:29.104Z,2.50
2023-02-27T11:18:25.543Z,2.30
2023-02-27T11:20:54.443Z,2.13
2023-02-27T11:23:24.666Z,1.90
2023-02-27T11:26:10.022Z,2.20
2023-02-27T11:28:39.853Z,2.83
2023-02-27T11:31:18.008Z,2.17
2023-02-27T11:33:53.305Z,3.20
2023-02-27T11:36:23.768Z,2.40
2023-02-27T11:38:54.622Z,2.57
2023-02-27T11:41:31.647Z,2.27
2023-02-27T11:44:03.004Z,2.67
2023-02-27T11:46:46.082Z,2.73
2023-02-27T11:49:31.024Z,2.50
2023-02-27T11:52:10.179Z,2.23
2023-02-27T11:54:40.821Z,2.20
2023-02-27T11:57:19.244Z,3.13
2023-02-27T11:59:55.309Z,3.00
2023-02-27T12:02:32.807Z,7.03
2023-02-27T12:05:12.872Z,5.03
2023-02-27T12:07:47.541Z,3.10
2023-02-27T12:10:22.513Z,3.17
2023-02-27T12:12:54.431Z,2.30
2023-02-27T12:15:28.852Z,2.27
2023-02-27T12:18:06.329Z,2.50
2023-02-27T12:20:44.738Z,3.37
2023-02-27T12:23:23.034Z,3.60
2023-02-27T12:25:55.184Z,2.70
2023-02-27T12:28:40.046Z,2.80
2023-02-27T12:31:45.232Z,2.53
2023-02-27T12:34:27.246Z,2.00
2023-02-27T12:37:02.270Z,1.90
2023-02-27T12:39:30.907Z,2.30
2023-02-27T12:42:30.512Z,2.40
2023-02-27T12:45:19.470Z,1.97
2023-02-27T12:47:57.303Z,2.03
2023-02-27T12:50:30.750Z,2.10
2023-02-27T12:53:12.896Z,2.10
2023-02-27T12:55:46.379Z,2.10
2023-02-27T12:58:30.169Z,2.10
2023-02-27T13:01:01.586Z,2.40
2023-02-27T13:03:39.381Z,2.47
2023-02-27T13:06:16.409Z,2.13
2023-02-27T13:09:09.768Z,2.40
2023-02-27T13:11:47.923Z,2.23
2023-02-27T13:14:29.771Z,1.90
2023-02-27T13:17:04.004Z,2.10
2023-02-27T13:19:37.908Z,1.97
2023-02-27T13:22:13.689Z,2.00
2023-02-27T13:24:48.203Z,2.37
2023-02-27T13:27:22.644Z,2.10
2023-02-27T13:30:02.957Z,2.20
2023-02-27T13:32:43.987Z,2.87
2023-02-27T13:35:24.488Z,2.57
2023-02-27T13:37:55.960Z,2.10
2023-02-27T13:40:40.616Z,1.80
2023-02-27T13:43:31.267Z,1.70
2023-02-27T13:46:02.212Z,1.90
2023-02-27T13:48:48.128Z,1.70
2023-02-27T13:51:56.552Z,1.40
2023-02-27T13:54:29.195Z,1.80
2023-02-27T13:57:22.486Z,2.40
2023-02-27T14:00:00.314Z,1.60
2023-02-27T14:02:59.183Z,1.73
2023-02-27T14:05:46.195Z,1.63
2023-02-27T14:08:17.498Z,2.17
2023-02-27T14:10:57.657Z,2.00
2023-02-27T14:14:10.980Z,1.60
2023-02-27T14:16:57.787Z,1.77
2023-02-27T14:19:59.492Z,1.50
2023-02-27T14:22:47.334Z,1.70
2023-02-27T14:25:25.101Z,1.90
2023-02-27T14:27:57.147Z,2.17
2023-02-27T14:30:34.827Z,2.60
2023-02-27T14:33:24.000Z,2.30
2023-02-27T14:36:01.837Z,1.97
2023-02-27T14:38:30.913Z,2.17
2023-02-27T14:41:16.381Z,1.70
2023-02-27T14:43:55.112Z,1.83
2023-02-27T14:46:29.318Z,1.60
2023-02-27T14:48:59.320Z,1.33
2023-02-27T14:51:30.812Z,1.40
2023-02-27T14:54:07.702Z,1.27
2023-02-27T14:56:36.419Z,1.50
2023-02-27T14:59:21.401Z,1.30
2023-02-27T15:01:52.067Z,1.33
2023-02-27T15:04:23.369Z,1.73
2023-02-27T15:06:54.473Z,2.20
2023-02-27T15:09:25.394Z,1.80
2023-02-27T15:12:03.394Z,1.43
2023-02-27T15:14:35.194Z,1.83
2023-02-27T15:17:05.531Z,1.90
2023-02-27T15:19:33.795Z,1.70
2023-02-27T15:22:05.510Z,5.20
2023-02-27T15:24:49.323Z,2.30
2023-02-27T15:27:22.852Z,1.90
2023-02-27T15:29:53.394Z,1.80
2023-02-27T15:32:29.032Z,2.00
2023-02-27T15:35:00.939Z,2.10
2023-02-27T15:37:33.184Z,2.87
2023-02-27T15:40:03.632Z,2.50
2023-02-27T15:42:36.432Z,2.80
2023-02-27T15:45:06.701Z,2.90
2023-02-27T15:47:38.220Z,1.93
2023-02-27T15:50:12.542Z,2.37
2023-02-27T15:52:44.561Z,1.93
2023-02-27T15:55:15.787Z,1.70
2023-02-27T15:57:56.498Z,2.13
2023-02-27T16:00:30.784Z,2.30
2023-02-27T16:03:01.207Z,2.10
2023-02-27T16:05:35.160Z,2.27
2023-02-27T16:08:03.967Z,2.07
2023-02-27T16:10:37.476Z,2.27
2023-02-27T16:13:21.127Z,7.97
2023-02-27T16:16:00.185Z,13.00
2023-02-27T16:18:35.389Z,15.30
2023-02-27T16:21:12.536Z,2.33
2023-02-27T16:23:41.480Z,7.10
2023-02-27T16:26:31.835Z,9.83
2023-02-27T16:29:03.740Z,6.23
2023-02-27T16:31:34.718Z,3.63
2023-02-27T16:34:16.505Z,3.43
2023-02-27T16:36:54.452Z,3.90
2023-02-27T16:39:22.930Z,2.90
2023-02-27T16:41:52.749Z,4.10
2023-02-27T16:44:21.792Z,2.93
2023-02-27T16:46:50.296Z,2.77
2023-02-27T16:49:23.031Z,2.67
2023-02-27T16:51:51.897Z,3.03
2023-02-27T16:54:20.735Z,2.57
2023-02-27T16:56:50.735Z,3.17
2023-02-27T16:59:29.582Z,3.00
2023-02-27T17:01:59.037Z,3.63
2023-02-27T17:04:29.943Z,2.30
2023-02-27T17:07:01.771Z,4.40
2023-02-27T17:09:30.491Z,2.50
2023-02-27T17:11:59.294Z,2.53
2023-02-27T17:14:27.642Z,2.83
2023-02-27T17:16:56.246Z,2.80
2023-02-27T17:19:25.590Z,2.80
2023-02-27T17:21:55.245Z,2.60
2023-02-27T17:24:23.959Z,2.80
2023-02-27T17:26:52.589Z,3.60
2023-02-27T17:29:21.142Z,4.93
2023-02-27T17:31:49.671Z,3.77
2023-02-27T17:34:18.150Z,2.67
2023-02-27T17:36:47.398Z,4.67
2023-02-27T17:39:17.567Z,3.50
2023-02-27T17:41:47.825Z,3.33
2023-02-27T17:44:16.052Z,2.70
2023-02-27T17:46:44.512Z,2.70
2023-02-27T17:49:12.893Z,2.60
2023-02-27T17:51:41.285Z,2.40
2023-02-27T17:54:09.430Z,3.73
2023-02-27T17:56:39.431Z,5.23
2023-02-27T17:59:08.721Z,3.50
2023-02-27T18:01:37.141Z,3.63
2023-02-27T18:04:06.989Z,2.83
2023-02-27T18:06:35.320Z,3.00
2023-02-27T18:09:04.143Z,2.70
2023-02-27T18:11:32.649Z,3.27
2023-02-27T18:14:02.923Z,2.90
2023-02-27T18:16:31.485Z,2.20
2023-02-27T18:19:03.094Z,3.03
2023-02-27T18:21:31.414Z,2.70
2023-02-27T18:23:59.983Z,3.50
2023-02-27T18:26:32.276Z,6.47
2023-02-27T18:29:05.456Z,10.30
2023-02-27T18:31:38.994Z,6.90
2023-02-27T18:34:07.892Z,3.53
2023-02-27T18:36:36.726Z,3.10
2023-02-27T18:39:06.140Z,3.60
2023-02-27T18:41:35.233Z,9.23
2023-02-27T18:44:05.179Z,4.47
2023-02-27T18:46:34.861Z,2.67
2023-02-27T18:49:03.365Z,3.73
2023-02-27T18:51:32.175Z,2.60
2023-02-27T18:54:01.668Z,3.10
2023-02-27T18:56:32.834Z,3.30
2023-02-27T18:59:05.268Z,21.70
2023-02-27T19:01:37.033Z,14.47
2023-02-27T19:04:07.429Z,24.90
2023-02-27T19:06:39.027Z,38.07
2023-02-27T19:09:08.264Z,24.23
2023-02-27T19:11:36.592Z,13.70
2023-02-27T19:14:07.567Z,10.73
2023-02-27T19:16:38.127Z,8.07
2023-02-27T19:19:09.969Z,8.47
2023-02-27T19:21:39.710Z,3.40
2023-02-27T19:24:09.180Z,3.30
2023-02-27T19:26:37.629Z,9.10
2023-02-27T19:29:07.904Z,5.40
2023-02-27T19:31:39.196Z,4.17
2023-02-27T19:34:09.279Z,3.47
2023-02-27T19:36:40.183Z,4.10
2023-02-27T19:39:11.696Z,3.60
2023-02-27T19:41:40.687Z,3.60
2023-02-27T19:44:09.906Z,4.27
2023-02-27T19:46:41.357Z,5.43
2023-02-27T19:49:10.138Z,6.37
2023-02-27T19:51:52.688Z,5.30
2023-02-27T19:54:21.216Z,3.50
2023-02-27T19:56:50.682Z,3.67
2023-02-27T19:59:21.991Z,3.07
2023-02-27T20:01:53.285Z,3.23
2023-02-27T20:04:22.055Z,3.57
2023-02-27T20:06:56.521Z,3.33
2023-02-27T20:09:26.884Z,3.43
2023-02-27T20:12:00.262Z,2.90
2023-02-27T20:14:32.719Z,3.33
2023-02-27T20:17:04.810Z,3.40
2023-02-27T20:19:39.298Z,4.30
2023-02-27T20:22:25.208Z,11.20
2023-02-27T20:24:57.361Z,5.63
2023-02-27T20:27:38.033Z,5.33
2023-02-27T20:30:26.980Z,4.57
2023-02-27T20:32:58.226Z,3.93
2023-02-27T20:35:48.369Z,3.90
2023-02-27T20:38:19.902Z,3.37
2023-02-27T20:41:08.139Z,3.97
2023-02-27T20:44:18.245Z,3.90
2023-02-27T20:46:49.744Z,4.00
2023-02-27T20:49:19.554Z,4.30
2023-02-27T20:51:49.445Z,4.50
2023-02-27T20:54:23.204Z,3.67
2023-02-27T20:56:54.395Z,4.27
2023-02-27T20:59:25.111Z,3.80
2023-02-27T21:01:55.087Z,3.97
2023-02-27T21:04:34.039Z,4.77
2023-02-27T21:07:05.471Z,12.27
2023-02-27T21:09:35.471Z,15.03
2023-02-27T21:12:07.656Z,11.30
2023-02-27T21:14:36.391Z,17.97
2023-02-27T21:17:06.021Z,20.07
2023-02-27T21:19:36.762Z,22.30
2023-02-27T21:22:07.457Z,18.30
2023-02-27T21:24:36.737Z,17.50
2023-02-27T21:27:05.798Z,25.57
2023-02-27T21:29:36.327Z,26.57
2023-02-27T21:32:05.748Z,17.17
2023-02-27T21:34:37.016Z,11.33
2023-02-27T21:37:07.321Z,8.57
2023-02-27T21:39:35.818Z,7.30
2023-02-27T21:42:04.492Z,7.30
2023-02-27T21:44:34.038Z,6.97
2023-02-27T21:47:09.928Z,6.50
2023-02-27T21:49:44.877Z,4.90
2023-02-27T21:52:14.885Z,5.20
2023-02-27T21:54:43.233Z,5.30
2023-02-27T21:57:11.528Z,5.20
2023-02-27T21:59:41.623Z,5.13
2023-02-27T22:02:13.337Z,4.53
2023-02-27T22:04:43.042Z,5.13
2023-02-27T22:07:11.584Z,5.43
2023-02-27T22:09:39.942Z,5.33
2023-02-27T22:12:10.412Z,6.57
2023-02-27T22:14:39.517Z,6.53
2023-02-27T22:17:07.777Z,6.40
2023-02-27T22:19:36.100Z,6.90
2023-02-27T22:22:07.746Z,6.37
2023-02-27T22:24:36.030Z,6.23
2023-02-27T22:27:04.732Z,6.27
2023-02-27T22:29:34.257Z,6.10
2023-02-27T22:32:03.941Z,6.10
2023-02-27T22:34:32.156Z,6.13
2023-02-27T22:37:00.660Z,5.93
2023-02-27T22:39:30.354Z,6.30
2023-02-27T22:41:58.731Z,6.63
2023-02-27T22:44:27.014Z,6.63
2023-02-27T22:46:56.828Z,6.03
2023-02-27T22:49:25.196Z,5.93
2023-02-27T22:51:53.988Z,6.03
2023-02-27T22:54:23.936Z,6.20
2023-02-27T22:56:57.928Z,6.00
2023-02-27T22:59:27.403Z,5.67
2023-02-27T23:02:52.059Z,6.17
2023-02-27T23:05:20.429Z,5.63
2023-02-27T23:07:49.265Z,6.37
2023-02-27T23:10:18.794Z,6.00
2023-02-27T23:12:48.779Z,5.90
2023-02-27T23:15:17.904Z,5.90
2023-02-27T23:17:56.634Z,5.37
2023-02-27T23:20:29.037Z,5.37
2023-02-27T23:22:57.314Z,5.57
2023-02-27T23:25:25.614Z,5.50
2023-02-27T23:27:56.909Z,5.50
2023-02-27T23:30:26.799Z,6.10
2023-02-27T23:36:55.394Z,5.57
2023-02-27T23:39:25.193Z,5.17
2023-02-27T23:41:53.509Z,6.07
2023-02-27T23:44:46.232Z,6.17
2023-02-27T23:47:33.095Z,5.93
2023-02-27T23:50:01.289Z,5.77
2023-02-27T23:52:29.732Z,6.27
2023-02-27T23:54:58.225Z,4.83
2023-02-27T23:57:26.537Z,5.80
2023-02-27T23:59:56.276Z,5.70
